Time;durP1;ratioP1;P1;durP2;ratioP2;P2;SDS_P1;SDS_P2;PMS_P1;PMS_P2;Temp;Humidity;BMP_temperature;BMP_pressure;BME280_temperature;BME280_humidity;BME280_pressure;Samples;Min_cycle;Max_cycle;Signal;HPM_P1;HPM_P2
2021/04/21 00:00:36;;;;;;;;;;;15.50;59.30;;;;;;5012184;28;75154;-72
2021/04/21 00:03:02;;;;;;;;;;;15.50;59.70;;;;;;5013249;28;74886;-72
2021/04/21 00:05:28;;;;;;;;;;;15.40;59.70;;;;;;5011368;28;77311;-76
2021/04/21 00:07:54;;;;;;;;;;;15.40;59.90;;;;;;5013264;28;75141;-77
2021/04/21 00:10:20;;;;;;;;;;;15.40;59.70;;;;;;5013342;28;75185;-76
2021/04/21 00:12:47;;;;;;;;;;;15.40;59.70;;;;;;5011824;28;77680;-71
2021/04/21 00:15:15;;;;;;;;;;;15.40;59.70;;;;;;5013964;28;75235;-73
2021/04/21 00:17:44;;;;;;;;;;;15.40;59.90;;;;;;5012563;28;76621;-69
2021/04/21 00:20:11;;;;;;;;;;;15.40;59.90;;;;;;5012997;28;75212;-68
2021/04/21 00:22:37;;;;;;;;;;;15.30;60.00;;;;;;5011428;28;76833;-73
2021/04/21 00:25:03;;;;;;;;;;;15.30;59.90;;;;;;5013022;28;75141;-67
2021/04/21 00:27:29;;;;;;;;;;;15.30;60.00;;;;;;5011229;28;77319;-68
2021/04/21 00:30:04;;;;;;;;;;;15.20;60.10;;;;;;5012778;28;74521;-67
2021/04/21 00:32:30;;;;;;;;;;;15.20;60.10;;;;;;5011214;28;77735;-70
2021/04/21 00:34:57;;;;;;;;;;;15.20;60.10;;;;;;5012554;28;74500;-66
2021/04/21 00:37:24;;;;;;;;;;;15.10;60.10;;;;;;5011480;28;77278;-70
2021/04/21 00:39:50;;;;;;;;;;;15.10;60.20;;;;;;5012798;28;75010;-72
2021/04/21 00:42:34;;;;;;;;;;;15.00;60.20;;;;;;5011062;28;75391;-72
2021/04/21 00:45:06;;;;;;;;;;;15.00;60.30;;;;;;5013152;28;74502;-72
2021/04/21 00:47:41;;;;;;;;;;;14.90;60.40;;;;;;5011226;28;75397;-69
2021/04/21 00:50:07;;;;;;;;;;;14.90;60.50;;;;;;5013261;28;74458;-70
2021/04/21 00:52:48;;;;;;;;;;;14.90;60.50;;;;;;5012447;28;74498;-65
2021/04/21 00:55:16;;;;;;;;;;;14.90;60.40;;;;;;5011393;28;77748;-71
2021/04/21 00:57:45;;;;;;;;;;;14.90;60.40;;;;;;5010716;28;77163;-67
2021/04/21 01:00:11;;;;;;;;;;;14.90;60.60;;;;;;5010523;28;76104;-76
2021/04/21 01:02:40;;;;;;;;;;;14.90;60.50;;;;;;5012406;28;75002;-69
2021/04/21 01:05:12;;;;;;;;;;;14.80;60.60;;;;;;5012219;28;75132;-66
2021/04/21 01:07:40;;;;;;;;;;;14.80;60.70;;;;;;5010838;28;78661;-71
2021/04/21 01:10:06;;;;;;;;;;;14.80;60.80;;;;;;5012047;28;75093;-70
2021/04/21 01:12:37;;;;;;;;;;;14.80;60.80;;;;;;5011470;28;77912;-72
2021/04/21 01:15:03;;;;;;;;;;;14.70;60.70;;;;;;5014176;28;78284;-66
2021/04/21 01:17:31;;;;;;;;;;;14.70;60.80;;;;;;5015948;28;75862;-65
2021/04/21 01:20:00;;;;;;;;;;;14.60;60.70;;;;;;5015565;28;75729;-67
2021/04/21 01:22:29;;;;;;;;;;;14.60;60.80;;;;;;5013973;28;75517;-67
2021/04/21 01:25:02;;;;;;;;;;;14.50;60.70;;;;;;5015792;28;75263;-68
2021/04/21 01:27:41;;;;;;;;;;;14.50;60.70;;;;;;5015770;28;74432;-69
2021/04/21 01:30:08;;;;;;;;;;;14.50;60.70;;;;;;5015468;28;75230;-66
2021/04/21 01:32:34;;;;;;;;;;;14.50;60.70;;;;;;5013915;28;77564;-67
2021/04/21 01:35:00;;;;;;;;;;;14.50;60.70;;;;;;5013705;28;78313;-67
2021/04/21 01:37:28;;;;;;;;;;;14.50;60.70;;;;;;5015296;28;75771;-69
2021/04/21 01:40:02;;;;;;;;;;;14.50;60.60;;;;;;5015977;28;74405;-69
2021/04/21 01:42:29;;;;;;;;;;;14.50;60.50;;;;;;5015211;28;75255;-67
2021/04/21 01:44:56;;;;;;;;;;;14.50;60.30;;;;;;5014063;28;75672;-67
2021/04/21 01:47:22;;;;;;;;;;;14.50;60.30;;;;;;5015170;28;75312;-65
2021/04/21 01:49:54;;;;;;;;;;;14.50;60.20;;;;;;5014896;28;75835;-67
2021/04/21 01:52:19;;;;;;;;;;;14.50;60.30;;;;;;5013577;28;77715;-70
2021/04/21 01:54:46;;;;;;;;;;;14.50;60.10;;;;;;5015084;28;75138;-72
2021/04/21 01:57:19;;;;;;;;;;;14.40;60.10;;;;;;5014857;28;75420;-67
2021/04/21 01:59:49;;;;;;;;;;;14.40;60.50;;;;;;5014905;28;74972;-72
2021/04/21 02:02:36;;;;;;;;;;;14.40;60.70;;;;;;5015091;28;75217;-72
2021/04/21 02:05:17;;;;;;;;;;;14.30;61.00;;;;;;5013884;28;77195;-77
2021/04/21 02:08:01;;;;;;;;;;;14.20;61.30;;;;;;5014044;28;76470;-78
2021/04/21 02:10:53;;;;;;;;;;;14.20;61.50;;;;;;5014944;28;74571;-76
2021/04/21 02:13:19;;;;;;;;;;;14.10;61.50;;;;;;5013074;28;74611;-77
2021/04/21 02:15:50;;;;;;;;;;;14.00;61.70;;;;;;5013364;28;76385;-70
2021/04/21 02:18:35;;;;;;;;;;;14.00;61.80;;;;;;5013124;28;76491;-72
2021/04/21 02:21:19;;;;;;;;;;;13.90;61.80;;;;;;5013337;28;76887;-72
2021/04/21 02:23:52;;;;;;;;;;;13.90;62.10;;;;;;5012923;28;76088;-70
2021/04/21 02:26:25;;;;;;;;;;;13.80;62.30;;;;;;5014989;28;74717;-67
2021/04/21 02:28:59;;;;;;;;;;;13.80;62.50;;;;;;5013076;28;75553;-66
2021/04/21 02:31:34;;;;;;;;;;;13.80;62.40;;;;;;5013031;28;74718;-66
2021/04/21 02:34:09;;;;;;;;;;;13.70;62.40;;;;;;5014939;28;74705;-64
2021/04/21 02:36:40;;;;;;;;;;;13.70;62.50;;;;;;5012954;28;74736;-65
2021/04/21 02:39:08;;;;;;;;;;;13.60;62.70;;;;;;5014905;28;74590;-71
2021/04/21 02:41:38;;;;;;;;;;;13.70;62.70;;;;;;5013184;28;76061;-70
2021/04/21 02:44:20;;;;;;;;;;;13.70;62.70;;;;;;5015144;28;75189;-69
2021/04/21 02:47:06;;;;;;;;;;;13.70;62.60;;;;;;5015049;28;74551;-72
2021/04/21 02:49:40;;;;;;;;;;;13.80;62.50;;;;;;5014271;28;74666;-66
2021/04/21 02:52:10;;;;;;;;;;;13.90;62.40;;;;;;5012785;28;78414;-75
2021/04/21 02:54:54;;;;;;;;;;;13.90;62.30;;;;;;5014489;28;75469;-71
2021/04/21 02:57:20;;;;;;;;;;;13.90;62.20;;;;;;5014726;28;75139;-77
2021/04/21 02:59:53;;;;;;;;;;;14.00;62.00;;;;;;5012407;28;74766;-69
2021/04/21 03:02:22;;;;;;;;;;;14.00;61.80;;;;;;5012727;28;74443;-76
2021/04/21 03:04:54;;;;;;;;;;;14.00;61.70;;;;;;5012616;28;75471;-81
2021/04/21 03:07:27;;;;;;;;;;;13.90;61.60;;;;;;5014861;28;74640;-84
2021/04/21 03:09:58;;;;;;;;;;;14.00;61.60;;;;;;5014335;28;75242;-78
2021/04/21 03:12:28;;;;;;;;;;;14.00;61.40;;;;;;5012619;28;77708;-77
2021/04/21 03:14:57;;;;;;;;;;;13.90;61.60;;;;;;5012550;28;77240;-81
2021/04/21 03:17:23;;;;;;;;;;;13.90;61.70;;;;;;5014056;28;75077;-78
2021/04/21 03:19:51;;;;;;;;;;;13.90;61.90;;;;;;5013786;28;75057;-74
2021/04/21 03:22:18;;;;;;;;;;;13.90;61.90;;;;;;5013502;28;75338;-69
2021/04/21 03:24:50;;;;;;;;;;;13.80;62.10;;;;;;5014350;28;74481;-67
2021/04/21 03:27:19;;;;;;;;;;;13.80;62.10;;;;;;5012421;28;77518;-71
2021/04/21 03:29:46;;;;;;;;;;;13.70;62.20;;;;;;5012413;28;75270;-82
2021/04/21 03:32:20;;;;;;;;;;;13.60;62.50;;;;;;5013793;28;75822;-87
2021/04/21 03:34:47;;;;;;;;;;;13.60;62.70;;;;;;5012095;28;75876;-73
2021/04/21 03:37:26;;;;;;;;;;;13.50;62.80;;;;;;5013891;28;75083;-71
2021/04/21 03:39:52;;;;;;;;;;;13.50;62.90;;;;;;5012563;28;75719;-71
2021/04/21 03:42:18;;;;;;;;;;;13.50;62.90;;;;;;5013907;28;75437;-72
2021/04/21 03:44:43;;;;;;;;;;;13.50;63.00;;;;;;5012049;28;74467;-67
2021/04/21 03:47:09;;;;;;;;;;;13.40;63.00;;;;;;5013681;28;75177;-67
2021/04/21 03:49:36;;;;;;;;;;;13.40;63.20;;;;;;5013523;28;74435;-72
2021/04/21 03:52:02;;;;;;;;;;;13.40;63.20;;;;;;5013140;28;75410;-71
2021/04/21 03:54:28;;;;;;;;;;;13.30;63.30;;;;;;5011598;28;77611;-69
2021/04/21 03:56:55;;;;;;;;;;;13.30;63.40;;;;;;5013375;28;75173;-66
2021/04/21 03:59:22;;;;;;;;;;;13.30;63.40;;;;;;5013057;28;75763;-73
2021/04/21 04:01:48;;;;;;;;;;;13.30;63.30;;;;;;5013413;28;74564;-70
2021/04/21 04:04:17;;;;;;;;;;;13.30;63.50;;;;;;5013400;28;74392;-68
2021/04/21 04:06:47;;;;;;;;;;;13.20;63.70;;;;;;5013065;28;74962;-67
2021/04/21 04:09:14;;;;;;;;;;;13.20;63.80;;;;;;5013556;28;75535;-68
2021/04/21 04:11:56;;;;;;;;;;;13.10;63.90;;;;;;5013932;28;75746;-66
2021/04/21 04:14:22;;;;;;;;;;;13.10;63.90;;;;;;5013333;28;75313;-65
2021/04/21 04:16:50;;;;;;;;;;;13.00;63.90;;;;;;5013594;28;74520;-67
2021/04/21 04:19:16;;;;;;;;;;;13.00;64.00;;;;;;5012621;28;75026;-74
2021/04/21 04:21:45;;;;;;;;;;;13.00;64.10;;;;;;5013001;28;75789;-73
2021/04/21 04:24:11;;;;;;;;;;;12.90;64.20;;;;;;5012848;28;75340;-77
2021/04/21 04:26:40;;;;;;;;;;;12.90;64.40;;;;;;5011746;28;77224;-71
2021/04/21 04:29:05;;;;;;;;;;;12.90;64.40;;;;;;5011186;28;78138;-68
2021/04/21 04:31:34;;;;;;;;;;;12.90;64.70;;;;;;5012903;28;75151;-67
2021/04/21 04:34:01;;;;;;;;;;;12.90;64.60;;;;;;5012927;28;75316;-70
2021/04/21 04:36:27;;;;;;;;;;;12.80;64.60;;;;;;5011012;28;78283;-74
2021/04/21 04:38:53;;;;;;;;;;;12.80;64.90;;;;;;5012876;28;75211;-67
2021/04/21 04:41:18;;;;;;;;;;;12.70;64.80;;;;;;5012402;28;75137;-69
2021/04/21 04:43:45;;;;;;;;;;;12.70;65.00;;;;;;5013352;28;74514;-70
2021/04/21 04:46:14;;;;;;;;;;;12.60;65.20;;;;;;5012632;28;75212;-67
2021/04/21 04:48:49;;;;;;;;;;;12.60;65.30;;;;;;5012376;28;75826;-68
2021/04/21 04:51:16;;;;;;;;;;;12.50;65.50;;;;;;5012666;28;75558;-68
2021/04/21 04:53:42;;;;;;;;;;;12.50;65.80;;;;;;5012506;28;75497;-73
2021/04/21 04:56:08;;;;;;;;;;;12.40;65.80;;;;;;5013133;28;74405;-71
2021/04/21 04:58:35;;;;;;;;;;;12.40;65.80;;;;;;5012199;28;75539;-70
2021/04/21 05:01:05;;;;;;;;;;;12.40;65.90;;;;;;5010298;28;76688;-71
2021/04/21 05:03:32;;;;;;;;;;;12.40;66.00;;;;;;5011015;28;77647;-77
2021/04/21 05:05:58;;;;;;;;;;;12.40;66.00;;;;;;5012354;28;75307;-74
2021/04/21 05:08:43;;;;;;;;;;;12.40;66.00;;;;;;5011251;28;77228;-76
2021/04/21 05:11:11;;;;;;;;;;;12.40;66.00;;;;;;5011977;28;75344;-69
2021/04/21 05:13:47;;;;;;;;;;;12.40;65.90;;;;;;5010859;28;78163;-67
2021/04/21 05:16:28;;;;;;;;;;;12.50;65.80;;;;;;5012085;28;74641;-73
2021/04/21 05:18:57;;;;;;;;;;;12.50;65.70;;;;;;5011496;28;76995;-68
2021/04/21 05:21:25;;;;;;;;;;;12.50;65.60;;;;;;5012597;28;75362;-68
2021/04/21 05:24:20;;;;;;;;;;;12.50;65.70;;;;;;5013899;28;74463;-68
2021/04/21 05:27:04;;;;;;;;;;;12.50;65.70;;;;;;5012548;28;75068;-68
2021/04/21 05:29:32;;;;;;;;;;;12.40;65.70;;;;;;5012685;28;74449;-68
2021/04/21 05:32:04;;;;;;;;;;;12.40;65.70;;;;;;5010229;28;77052;-73
2021/04/21 05:34:45;;;;;;;;;;;12.40;65.70;;;;;;5009796;28;78519;-66
2021/04/21 05:37:29;;;;;;;;;;;12.40;65.70;;;;;;5017798;28;76276;-61
2021/04/21 05:39:57;;;;;;;;;;;12.40;65.70;;;;;;5013391;28;75316;-62
2021/04/21 05:42:26;;;;;;;;;;;12.40;65.90;;;;;;5014817;28;75957;-63
2021/04/21 05:44:55;;;;;;;;;;;12.30;65.80;;;;;;5030031;28;77994;-66
2021/04/21 05:47:42;;;;;;;;;;;12.30;66.10;;;;;;5020434;28;75744;-67
2021/04/21 05:50:14;;;;;;;;;;;12.20;65.90;;;;;;5010071;28;78491;-65
2021/04/21 05:52:58;;;;;;;;;;;12.30;65.70;;;;;;5009960;28;77202;-65
2021/04/21 05:55:41;;;;;;;;;;;12.40;65.60;;;;;;5008840;28;76544;-63
2021/04/21 05:58:26;;;;;;;;;;;12.40;65.50;;;;;;5010142;28;78501;-68
2021/04/21 06:01:10;;;;;;;;;;;12.40;65.40;;;;;;5014611;28;75082;-63
2021/04/21 06:03:37;;;;;;;;;;;12.50;65.20;;;;;;5015179;28;74849;-63
2021/04/21 06:06:03;;;;;;;;;;;12.50;65.10;;;;;;5034698;28;74927;-63
2021/04/21 06:08:30;;;;;;;;;;;12.60;64.90;;;;;;5033355;28;75458;-66
2021/04/21 06:10:56;;;;;;;;;;;12.50;65.00;;;;;;5034951;28;75364;-64
2021/04/21 06:13:28;;;;;;;;;;;12.60;64.90;;;;;;5033263;28;76277;-63
2021/04/21 06:15:55;;;;;;;;;;;12.60;64.80;;;;;;5032717;28;75514;-63
2021/04/21 06:18:21;;;;;;;;;;;12.60;64.80;;;;;;5032939;28;76994;-66
2021/04/21 06:20:47;;;;;;;;;;;12.60;64.70;;;;;;5033248;28;75651;-64
2021/04/21 06:23:14;;;;;;;;;;;12.60;64.70;;;;;;5034500;28;74479;-65
2021/04/21 06:25:42;;;;;;;;;;;12.60;64.50;;;;;;5032671;28;77517;-65
2021/04/21 06:28:25;;;;;;;;;;;12.60;64.50;;;;;;5034548;28;75244;-64
2021/04/21 06:31:11;;;;;;;;;;;12.60;64.70;;;;;;5034441;28;75251;-66
2021/04/21 06:33:45;;;;;;;;;;;12.70;64.70;;;;;;5033993;28;75226;-63
2021/04/21 06:36:14;;;;;;;;;;;12.70;64.60;;;;;;5028738;28;75200;-64
2021/04/21 06:38:40;;;;;;;;;;;12.70;64.60;;;;;;5021550;28;75438;-64
2021/04/21 06:41:06;;;;;;;;;;;12.70;64.50;;;;;;5034195;28;75478;-63
2021/04/21 06:43:33;;;;;;;;;;;12.80;64.70;;;;;;5034145;28;75309;-63
2021/04/21 06:45:59;;;;;;;;;;;12.90;64.60;;;;;;5033668;28;75413;-63
2021/04/21 06:48:29;;;;;;;;;;;13.00;64.10;;;;;;5032289;28;74652;-62
2021/04/21 06:51:04;;;;;;;;;;;13.00;63.80;;;;;;5031855;28;77137;-62
2021/04/21 06:53:30;;;;;;;;;;;13.10;63.60;;;;;;5025439;28;75207;-63
2021/04/21 06:55:56;;;;;;;;;;;13.10;63.30;;;;;;5024716;28;75737;-64
2021/04/21 06:58:22;;;;;;;;;;;13.30;63.30;;;;;;5032646;28;75286;-67
2021/04/21 07:00:48;;;;;;;;;;;13.40;62.90;;;;;;5031742;28;76843;-64
2021/04/21 07:03:17;;;;;;;;;;;13.50;62.60;;;;;;5031970;28;77611;-65
2021/04/21 07:05:45;;;;;;;;;;;13.50;62.20;;;;;;5031640;28;75420;-66
2021/04/21 07:08:13;;;;;;;;;;;13.60;62.00;;;;;;5033608;28;75712;-63
2021/04/21 07:10:42;;;;;;;;;;;13.70;61.80;;;;;;5032379;28;75211;-61
2021/04/21 07:13:10;;;;;;;;;;;13.80;61.40;;;;;;5031899;28;76717;-65
2021/04/21 07:15:37;;;;;;;;;;;13.80;61.20;;;;;;5032984;28;74630;-66
2021/04/21 07:18:03;;;;;;;;;;;13.90;61.20;;;;;;5031612;28;77539;-64
2021/04/21 07:20:29;;;;;;;;;;;13.90;61.30;;;;;;5031627;28;76313;-63
2021/04/21 07:22:55;;;;;;;;;;;13.90;61.30;;;;;;5033309;28;75532;-65
2021/04/21 07:25:21;;;;;;;;;;;13.90;61.20;;;;;;5033011;28;75692;-63
2021/04/21 07:27:52;;;;;;;;;;;14.00;61.00;;;;;;5032977;28;75255;-68
2021/04/21 07:30:25;;;;;;;;;;;14.10;60.60;;;;;;5033662;28;74536;-64
2021/04/21 07:32:50;;;;;;;;;;;14.20;60.30;;;;;;5032010;28;78064;-64
2021/04/21 07:35:17;;;;;;;;;;;14.30;60.20;;;;;;5032465;28;75152;-64
2021/04/21 07:37:44;;;;;;;;;;;14.40;59.70;;;;;;5033232;28;74956;-62
2021/04/21 07:40:28;;;;;;;;;;;14.40;59.50;;;;;;5031783;28;75627;-63
2021/04/21 07:43:04;;;;;;;;;;;14.50;59.30;;;;;;5033341;28;75221;-63
2021/04/21 07:46:02;;;;;;;;;;;14.60;59.00;;;;;;5032585;28;75074;-63
2021/04/21 07:48:33;;;;;;;;;;;14.60;58.70;;;;;;5018111;28;75365;-65
2021/04/21 07:51:15;;;;;;;;;;;14.70;58.50;;;;;;5029021;28;74673;-63
2021/04/21 07:53:46;;;;;;;;;;;14.80;58.40;;;;;;5033145;28;75252;-62
2021/04/21 07:56:12;;;;;;;;;;;14.90;58.00;;;;;;5032778;28;76249;-62
2021/04/21 07:58:38;;;;;;;;;;;14.90;57.90;;;;;;5032997;28;75168;-62
2021/04/21 08:01:03;;;;;;;;;;;15.00;57.80;;;;;;5032870;28;75163;-65
2021/04/21 08:03:29;;;;;;;;;;;15.10;57.60;;;;;;5032822;28;75611;-63
2021/04/21 08:05:55;;;;;;;;;;;15.30;57.20;;;;;;5032337;28;75009;-66
2021/04/21 08:08:30;;;;;;;;;;;15.40;56.90;;;;;;5031476;28;75902;-62
2021/04/21 08:10:56;;;;;;;;;;;15.40;56.70;;;;;;5032984;28;75330;-64
2021/04/21 08:13:38;;;;;;;;;;;15.50;56.50;;;;;;5033086;28;75131;-66
2021/04/21 08:16:04;;;;;;;;;;;15.60;56.00;;;;;;5030741;28;74979;-66
2021/04/21 08:18:33;;;;;;;;;;;15.80;55.70;;;;;;5031182;28;78353;-66
2021/04/21 08:20:59;;;;;;;;;;;15.90;55.50;;;;;;5029909;28;78748;-64
2021/04/21 08:23:25;;;;;;;;;;;15.90;55.20;;;;;;5032632;28;75130;-62
2021/04/21 08:25:51;;;;;;;;;;;16.00;54.90;;;;;;5032077;28;74964;-64
2021/04/21 08:28:17;;;;;;;;;;;16.10;55.00;;;;;;5032500;28;75154;-62
2021/04/21 08:30:52;;;;;;;;;;;16.20;54.70;;;;;;5017348;28;78072;-63
2021/04/21 08:33:18;;;;;;;;;;;16.20;54.60;;;;;;5011381;28;77843;-64
2021/04/21 08:35:43;;;;;;;;;;;16.20;54.40;;;;;;5012027;28;75562;-65
2021/04/21 08:38:09;;;;;;;;;;;16.30;54.60;;;;;;5012527;28;75442;-63
2021/04/21 08:40:38;;;;;;;;;;;16.30;54.30;;;;;;5012277;28;75218;-62
2021/04/21 08:43:06;;;;;;;;;;;16.30;54.40;;;;;;5010842;28;76580;-62
2021/04/21 08:45:32;;;;;;;;;;;16.30;54.60;;;;;;5010210;28;77243;-63
2021/04/21 08:47:59;;;;;;;;;;;16.40;54.40;;;;;;5012217;28;74485;-64
2021/04/21 08:50:25;;;;;;;;;;;16.40;54.30;;;;;;5011910;28;75319;-62
2021/04/21 08:52:56;;;;;;;;;;;16.40;54.30;;;;;;5010869;28;76333;-63
2021/04/21 08:55:23;;;;;;;;;;;16.50;54.00;;;;;;5011650;28;75256;-63
2021/04/21 08:57:49;;;;;;;;;;;16.50;53.30;;;;;;5010857;28;76010;-67
2021/04/21 09:00:18;;;;;;;;;;;16.50;54.10;;;;;;5011637;28;74959;-66
2021/04/21 09:02:44;;;;;;;;;;;16.60;54.00;;;;;;5011088;28;76618;-66
2021/04/21 09:05:11;;;;;;;;;;;16.80;53.90;;;;;;5010025;28;78327;-63
2021/04/21 09:07:38;;;;;;;;;;;16.90;53.60;;;;;;5010605;28;75453;-65
2021/04/21 09:10:08;;;;;;;;;;;16.90;53.00;;;;;;5011659;28;75226;-64
2021/04/21 09:12:33;;;;;;;;;;;17.00;53.40;;;;;;5010610;28;74635;-64
2021/04/21 09:14:59;;;;;;;;;;;17.10;53.10;;;;;;5010453;28;78154;-62
2021/04/21 09:17:25;;;;;;;;;;;17.30;53.10;;;;;;5011883;28;74467;-64
2021/04/21 09:19:51;;;;;;;;;;;17.40;53.00;;;;;;5010370;28;75140;-62
2021/04/21 09:22:16;;;;;;;;;;;17.50;53.00;;;;;;5011644;28;75144;-64
2021/04/21 09:24:43;;;;;;;;;;;17.70;52.20;;;;;;5009584;28;77604;-69
2021/04/21 09:27:26;;;;;;;;;;;17.80;52.00;;;;;;5010066;28;77104;-70
2021/04/21 09:30:08;;;;;;;;;;;17.90;51.30;;;;;;5009996;28;77184;-67
2021/04/21 09:32:42;;;;;;;;;;;18.00;51.00;;;;;;5009931;28;77355;-67
2021/04/21 09:35:11;;;;;;;;;;;18.20;50.70;;;;;;5012655;28;75298;-67
2021/04/21 09:37:37;;;;;;;;;;;18.40;50.70;;;;;;5013680;28;74810;-64
2021/04/21 09:40:02;;;;;;;;;;;18.60;50.20;;;;;;5015081;28;75093;-65
2021/04/21 09:42:28;;;;;;;;;;;18.90;49.70;;;;;;5015250;28;75517;-62
2021/04/21 09:44:54;;;;;;;;;;;19.00;49.20;;;;;;5015489;28;74604;-62
2021/04/21 09:47:20;;;;;;;;;;;19.20;48.60;;;;;;5014687;28;75576;-62
2021/04/21 09:49:47;;;;;;;;;;;19.40;47.60;;;;;;5012287;28;78774;-62
2021/04/21 09:52:13;;;;;;;;;;;19.30;47.50;;;;;;5012558;28;75229;-62
2021/04/21 09:54:45;;;;;;;;;;;19.40;47.40;;;;;;5015199;28;75534;-64
2021/04/21 09:57:19;;;;;;;;;;;19.40;47.40;;;;;;5012333;28;77944;-65
2021/04/21 09:59:59;;;;;;;;;;;19.60;47.70;;;;;;5013137;28;75733;-63
2021/04/21 10:02:38;;;;;;;;;;;19.80;47.50;;;;;;5012707;28;76093;-62
2021/04/21 10:05:24;;;;;;;;;;;20.00;46.10;;;;;;5013298;28;75371;-64
2021/04/21 10:08:08;;;;;;;;;;;20.10;46.00;;;;;;5014614;28;75052;-68
2021/04/21 10:10:33;;;;;;;;;;;20.40;46.20;;;;;;5013350;28;76354;-63
2021/04/21 10:13:10;;;;;;;;;;;20.60;45.80;;;;;;5012998;28;78088;-63
2021/04/21 10:15:35;;;;;;;;;;;20.90;45.20;;;;;;5010569;28;77435;-62
2021/04/21 10:18:01;;;;;;;;;;;21.10;44.80;;;;;;5012198;28;74870;-62
2021/04/21 10:20:30;;;;;;;;;;;21.40;44.90;;;;;;5014590;28;75462;-62
2021/04/21 10:22:56;;;;;;;;;;;21.80;44.00;;;;;;5012864;28;77429;-65
2021/04/21 10:25:22;;;;;;;;;;;21.90;43.60;;;;;;5014384;28;75673;-65
2021/04/21 10:27:47;;;;;;;;;;;21.90;43.30;;;;;;5012622;28;76405;-64
2021/04/21 10:30:13;;;;;;;;;;;22.00;42.50;;;;;;5013301;28;76104;-65
2021/04/21 10:32:39;;;;;;;;;;;22.40;39.70;;;;;;5014349;28;75816;-64
2021/04/21 10:35:05;;;;;;;;;;;22.70;42.30;;;;;;5014499;28;75436;-63
2021/04/21 10:37:38;;;;;;;;;;;23.20;40.90;;;;;;5011978;28;75666;-64
2021/04/21 10:40:05;;;;;;;;;;;23.60;40.20;;;;;;5012680;28;76341;-63
2021/04/21 10:42:45;;;;;;;;;;;23.90;39.80;;;;;;5014479;28;75240;-63
2021/04/21 10:45:18;;;;;;;;;;;24.20;39.40;;;;;;5012471;28;75502;-63
2021/04/21 10:47:45;;;;;;;;;;;24.30;38.70;;;;;;5012431;28;75682;-64
2021/04/21 10:50:12;;;;;;;;;;;23.70;39.10;;;;;;5012405;28;74685;-63
2021/04/21 10:52:41;;;;;;;;;;;23.40;39.90;;;;;;5013956;28;75218;-65
2021/04/21 10:55:07;;;;;;;;;;;23.40;40.00;;;;;;5014237;28;74793;-69
2021/04/21 10:57:37;;;;;;;;;;;24.20;39.40;;;;;;5012146;28;77495;-64
2021/04/21 11:00:13;;;;;;;;;;;24.70;37.80;;;;;;5013691;28;75274;-65
2021/04/21 11:02:45;;;;;;;;;;;24.60;37.70;;;;;;5014235;28;74785;-67
2021/04/21 11:05:13;;;;;;;;;;;24.10;38.10;;;;;;5014120;28;75721;-65
2021/04/21 11:07:39;;;;;;;;;;;23.80;38.90;;;;;;5011865;28;76624;-65
2021/04/21 11:10:06;;;;;;;;;;;23.50;39.40;;;;;;5012463;28;77212;-71
2021/04/21 11:12:50;;;;;;;;;;;23.40;39.60;;;;;;5012172;28;77433;-71
2021/04/21 11:15:35;;;;;;;;;;;23.30;38.50;;;;;;5027422;28;75355;-66
2021/04/21 11:18:09;;;;;;;;;;;22.70;39.20;;;;;;5022454;28;76984;-69
2021/04/21 11:20:48;;;;;;;;;;;22.50;39.80;;;;;;5013086;28;76522;-68
2021/04/21 11:23:32;;;;;;;;;;;22.60;39.00;;;;;;5001803;28;75075;-71
2021/04/21 11:26:16;;;;;;;;;;;22.50;39.30;;;;;;5006801;28;76388;-70
2021/04/21 11:29:01;;;;;;;;;;;23.10;38.10;;;;;;5007013;28;74638;-71
2021/04/21 11:34:20;;;;;;;;;;;23.70;37.70;;;;;;5010266;28;75116;-68
2021/04/21 11:36:49;;;;;;;;;;;24.80;36.80;;;;;;5013597;28;75490;-68
2021/04/21 11:39:15;;;;;;;;;;;26.40;34.10;;;;;;4996000;28;75453;-72
2021/04/21 11:41:47;;;;;;;;;;;26.90;31.40;;;;;;4991768;28;76718;-70
2021/04/21 11:44:31;;;;;;;;;;;27.90;31.20;;;;;;4993665;28;75125;-69
2021/04/21 11:47:02;;;;;;;;;;;28.90;29.40;;;;;;5011812;28;77360;-65
2021/04/21 11:49:46;;;;;;;;;;;30.10;27.80;;;;;;5016057;28;75083;-70
2021/04/21 11:52:31;;;;;;;;;;;29.00;29.40;;;;;;5033007;28;74545;-68
2021/04/21 11:54:57;;;;;;;;;;;28.70;29.40;;;;;;5032844;28;74594;-71
2021/04/21 11:57:23;;;;;;;;;;;27.80;30.60;;;;;;5026941;28;75299;-72
2021/04/21 11:59:49;;;;;;;;;;;27.20;32.00;;;;;;5010687;28;78861;-66
2021/04/21 12:02:16;;;;;;;;;;;26.30;32.90;;;;;;5012962;28;75028;-65
2021/04/21 12:04:41;;;;;;;;;;;25.30;33.00;;;;;;5011451;28;76978;-67
2021/04/21 12:07:08;;;;;;;;;;;24.60;33.30;;;;;;5011799;28;77448;-68
2021/04/21 12:09:34;;;;;;;;;;;24.60;34.90;;;;;;5011045;28;77443;-65
2021/04/21 12:12:00;;;;;;;;;;;25.90;32.10;;;;;;5012801;28;75752;-64
2021/04/21 12:14:26;;;;;;;;;;;27.30;31.40;;;;;;5012156;28;75219;-65
2021/04/21 12:16:51;;;;;;;;;;;27.70;30.20;;;;;;5013033;28;75033;-65
2021/04/21 12:19:17;;;;;;;;;;;27.30;29.60;;;;;;5010503;28;74567;-65
2021/04/21 12:21:45;;;;;;;;;;;26.50;31.00;;;;;;5023895;28;75323;-68
2021/04/21 12:24:10;;;;;;;;;;;26.70;31.40;;;;;;5032640;28;75725;-66
2021/04/21 12:26:41;;;;;;;;;;;26.40;31.40;;;;;;5032772;28;76357;-69
2021/04/21 12:29:13;;;;;;;;;;;26.50;32.00;;;;;;5033051;28;75358;-66
2021/04/21 12:31:40;;;;;;;;;;;27.20;29.80;;;;;;5031536;28;76443;-65
2021/04/21 12:34:11;;;;;;;;;;;27.50;29.30;;;;;;5031158;28;77760;-67
2021/04/21 12:36:37;;;;;;;;;;;27.90;28.90;;;;;;5031187;28;77504;-66
2021/04/21 12:39:05;;;;;;;;;;;28.60;28.50;;;;;;5032821;28;75218;-67
2021/04/21 12:41:32;;;;;;;;;;;29.00;27.80;;;;;;5033469;28;74834;-65
2021/04/21 12:44:14;;;;;;;;;;;29.30;28.00;;;;;;5030650;28;76795;-65
2021/04/21 12:46:40;;;;;;;;;;;28.80;28.10;;;;;;5031168;28;76590;-65
2021/04/21 12:49:05;;;;;;;;;;;28.10;28.70;;;;;;5032773;28;75423;-64
2021/04/21 12:51:31;;;;;;;;;;;27.60;29.30;;;;;;5032882;28;74668;-66
2021/04/21 12:54:17;;;;;;;;;;;27.00;30.20;;;;;;5032348;28;75154;-67
2021/04/21 12:56:42;;;;;;;;;;;26.70;30.10;;;;;;5031784;28;74608;-67
2021/04/21 12:59:15;;;;;;;;;;;26.00;31.00;;;;;;5032436;28;75370;-65
2021/04/21 13:01:41;;;;;;;;;;;25.40;31.80;;;;;;5030537;28;78292;-65
2021/04/21 13:04:08;;;;;;;;;;;25.10;32.90;;;;;;5030890;28;77194;-64
2021/04/21 13:06:34;;;;;;;;;;;25.40;33.10;;;;;;5032232;28;75262;-65
2021/04/21 13:09:03;;;;;;;;;;;26.00;32.40;;;;;;5035515;28;75343;-65
2021/04/21 13:11:31;;;;;;;;;;;25.90;31.70;;;;;;5036029;28;75257;-65
2021/04/21 13:13:57;;;;;;;;;;;26.10;31.50;;;;;;5036105;28;74928;-65
2021/04/21 13:16:27;;;;;;;;;;;26.00;31.60;;;;;;5035715;28;76950;-67
2021/04/21 13:18:53;;;;;;;;;;;26.00;31.20;;;;;;5035781;28;76170;-65
2021/04/21 13:21:19;;;;;;;;;;;25.80;30.90;;;;;;5035397;28;76703;-67
2021/04/21 13:23:52;;;;;;;;;;;25.70;30.90;;;;;;5036125;28;74442;-64
2021/04/21 13:26:18;;;;;;;;;;;25.40;30.80;;;;;;5036182;28;74450;-66
2021/04/21 13:28:50;;;;;;;;;;;25.00;31.10;;;;;;5034175;28;76903;-70
2021/04/21 13:31:17;;;;;;;;;;;24.90;32.40;;;;;;5035563;28;75149;-70
2021/04/21 13:33:47;;;;;;;;;;;24.50;33.20;;;;;;5036264;28;74479;-68
2021/04/21 13:36:13;;;;;;;;;;;24.60;33.40;;;;;;5035675;28;75324;-68
2021/04/21 13:38:39;;;;;;;;;;;25.00;31.60;;;;;;5034245;28;74653;-64
2021/04/21 13:41:05;;;;;;;;;;;25.00;31.80;;;;;;5035292;28;75683;-68
2021/04/21 13:43:31;;;;;;;;;;;25.90;31.00;;;;;;5034094;28;74752;-67
2021/04/21 13:45:57;;;;;;;;;;;26.60;29.70;;;;;;5034383;28;76895;-68
2021/04/21 13:48:23;;;;;;;;;;;26.50;30.40;;;;;;5035499;28;75162;-68
2021/04/21 13:50:49;;;;;;;;;;;26.00;30.20;;;;;;5033574;28;77204;-65
2021/04/21 13:53:15;;;;;;;;;;;25.50;30.60;;;;;;5035275;28;75049;-70
2021/04/21 13:55:41;;;;;;;;;;;25.00;31.70;;;;;;5035480;28;75068;-68
2021/04/21 13:58:06;;;;;;;;;;;25.00;32.50;;;;;;5033728;28;78533;-65
2021/04/21 14:00:32;;;;;;;;;;;24.90;32.00;;;;;;5033435;28;78174;-65
2021/04/21 14:02:58;;;;;;;;;;;24.90;32.20;;;;;;5035395;28;75425;-65
2021/04/21 14:05:28;;;;;;;;;;;24.90;32.20;;;;;;5034877;28;75049;-65
2021/04/21 14:07:54;;;;;;;;;;;24.60;32.50;;;;;;5026719;28;77883;-63
2021/04/21 14:10:20;;;;;;;;;;;24.30;33.00;;;;;;4997775;28;75771;-66
2021/04/21 14:12:46;;;;;;;;;;;24.10;33.30;;;;;;4995107;28;75687;-63
2021/04/21 14:15:12;;;;;;;;;;;24.20;33.50;;;;;;4993296;28;78413;-67
2021/04/21 14:17:38;;;;;;;;;;;24.10;33.30;;;;;;4995045;28;75480;-63
2021/04/21 14:20:05;;;;;;;;;;;24.20;33.50;;;;;;4993178;28;75943;-66
2021/04/21 14:22:32;;;;;;;;;;;24.40;33.00;;;;;;4990844;28;76974;-66
2021/04/21 14:24:58;;;;;;;;;;;24.40;33.10;;;;;;4992817;28;77072;-64
2021/04/21 14:27:24;;;;;;;;;;;24.30;33.10;;;;;;4991630;28;78368;-65
2021/04/21 14:29:49;;;;;;;;;;;24.30;32.80;;;;;;4994481;28;75222;-66
2021/04/21 14:32:15;;;;;;;;;;;24.30;32.80;;;;;;4993030;28;75195;-64
2021/04/21 14:34:40;;;;;;;;;;;24.20;32.80;;;;;;4994201;28;75062;-65